Time;durP1;ratioP1;P1;durP2;ratioP2;P2;SDS_P1;SDS_P2;PMS_P1;PMS_P2;Temp;Humidity;BMP_temperature;BMP_pressure;BME280_temperature;BME280_humidity;BME280_pressure;Samples;Min_cycle;Max_cycle;Signal;HPM_P1;HPM_P2
2021/06/16 00:02:38;;;;;;;14.67;10.03;;;;;;;17.95;60.78;100326.05;154783;1098;103126;-87
2021/06/16 00:05:41;;;;;;;11.05;8.40;;;;;;;17.91;60.63;100340.16;154688;1098;103187;-80
2021/06/16 00:08:44;;;;;;;9.37;8.13;;;;;;;17.91;60.99;100346.38;154662;1098;103570;-80
2021/06/16 00:11:47;;;;;;;12.47;8.40;;;;;;;17.94;60.97;100343.30;154672;1093;103145;-81
2021/06/16 00:14:50;;;;;;;13.10;8.73;;;;;;;17.96;61.16;100340.40;154741;1098;103199;-84
2021/06/16 00:17:53;;;;;;;12.23;9.07;;;;;;;17.95;61.07;100342.24;154756;1093;103109;-79
2021/06/16 00:20:56;;;;;;;12.73;9.70;;;;;;;17.93;61.06;100328.11;154532;1093;103112;-79
2021/06/16 00:24:00;;;;;;;13.90;9.73;;;;;;;17.91;61.15;100332.05;154612;1093;103489;-79
2021/06/16 00:27:04;;;;;;;12.97;10.27;;;;;;;17.86;61.58;100340.77;154570;1098;103356;-79
2021/06/16 00:30:10;;;;;;;14.33;11.73;;;;;;;17.82;61.78;100340.29;154840;1098;103189;-80
2021/06/16 00:33:13;;;;;;;12.90;10.50;;;;;;;17.79;61.95;100343.38;154607;1098;103196;-81
2021/06/16 00:36:16;;;;;;;11.10;9.20;;;;;;;17.82;62.34;100342.13;154649;1093;103189;-80
2021/06/16 00:39:19;;;;;;;13.43;10.37;;;;;;;17.84;62.42;100340.09;154632;1098;103125;-83
2021/06/16 00:42:24;;;;;;;15.13;10.83;;;;;;;17.90;62.59;100342.03;156155;1098;103210;-83
2021/06/16 00:45:28;;;;;;;14.37;12.00;;;;;;;17.95;62.81;100336.02;156579;1098;103123;-83
2021/06/16 00:48:32;;;;;;;13.10;10.40;;;;;;;17.95;62.62;100334.14;156946;1098;103174;-84
2021/06/16 00:51:35;;;;;;;17.00;12.43;;;;;;;17.98;62.77;100341.86;155478;1098;103160;-81
2021/06/16 00:54:38;;;;;;;15.33;12.63;;;;;;;17.97;62.93;100337.48;154907;1098;103059;-80
2021/06/16 00:57:42;;;;;;;14.78;10.60;;;;;;;17.94;63.12;100331.67;154622;1093;103484;-80
2021/06/16 01:00:53;;;;;;;13.90;10.40;;;;;;;18.01;63.25;100327.11;154764;1098;103132;-81
2021/06/16 01:04:02;;;;;;;14.30;12.05;;;;;;;18.04;63.70;100332.95;154660;1093;103120;-81
2021/06/16 01:07:09;;;;;;;16.60;12.50;;;;;;;17.95;64.17;100347.64;154615;1098;103126;-81
2021/06/16 01:10:16;;;;;;;15.10;11.93;;;;;;;17.89;64.14;100337.64;154788;1098;103116;-80
2021/06/16 01:13:26;;;;;;;15.20;12.47;;;;;;;17.86;64.00;100338.06;154808;1098;103259;-79
2021/06/16 01:16:37;;;;;;;19.63;12.63;;;;;;;17.80;64.25;100346.90;154744;1098;103128;-81
2021/06/16 01:20:01;;;;;;;13.67;11.13;;;;;;;17.68;64.90;100349.31;155530;1094;103125;-81
2021/06/16 01:23:43;;;;;;;18.17;12.00;;;;;;;17.58;65.57;100357.77;156131;1098;103181;-82
2021/06/16 01:26:49;;;;;;;15.40;11.40;;;;;;;17.56;64.52;100351.73;155331;1098;103212;-82
2021/06/16 01:29:55;;;;;;;15.17;11.17;;;;;;;17.63;64.62;100360.72;155490;1098;103481;-81
2021/06/16 01:32:59;;;;;;;15.50;12.40;;;;;;;17.63;64.90;100366.11;156161;1098;103216;-81
2021/06/16 01:36:02;;;;;;;14.67;12.57;;;;;;;17.52;65.02;100382.01;155661;1093;103139;-81
2021/06/16 01:39:09;;;;;;;17.23;12.90;;;;;;;17.38;65.67;100381.04;155246;1098;103166;-79
2021/06/16 01:42:15;;;;;;;15.47;11.47;;;;;;;17.28;65.30;100367.89;155164;1093;103109;-82
2021/06/16 01:45:20;;;;;;;13.87;11.23;;;;;;;17.31;65.51;100377.48;154785;1093;103256;-81
2021/06/16 01:48:23;;;;;;;14.47;12.30;;;;;;;17.23;66.44;100373.88;154657;1094;103201;-81
2021/06/16 01:51:28;;;;;;;19.33;13.77;;;;;;;17.15;66.83;100374.02;154615;1098;103211;-81
2021/06/16 01:54:33;;;;;;;13.40;11.93;;;;;;;17.11;66.13;100366.49;154625;1098;103116;-79
2021/06/16 01:57:37;;;;;;;15.83;13.00;;;;;;;17.14;66.10;100371.52;155341;1098;103175;-83
2021/06/16 02:00:42;;;;;;;16.10;12.05;;;;;;;17.14;66.47;100363.42;154973;1098;103365;-85
2021/06/16 02:03:45;;;;;;;12.95;10.70;;;;;;;17.14;66.93;100363.42;154800;1091;103122;-85
2021/06/16 02:06:55;;;;;;;13.67;11.63;;;;;;;17.15;66.78;100379.41;154636;1098;103115;-85
2021/06/16 02:09:59;;;;;;;15.60;13.00;;;;;;;17.15;68.61;100378.55;154719;1098;103197;-83
2021/06/16 02:13:05;;;;;;;16.00;12.65;;;;;;;17.11;68.31;100388.92;154835;1098;103129;-81
2021/06/16 02:16:12;;;;;;;14.93;12.50;;;;;;;17.07;68.02;100384.91;154791;1098;103476;-81
2021/06/16 02:19:18;;;;;;;15.20;11.20;;;;;;;17.08;68.40;100373.94;154860;1098;103189;-81
2021/06/16 02:22:26;;;;;;;13.97;10.83;;;;;;;17.14;68.17;100387.69;154720;1098;103209;-81
2021/06/16 02:25:30;;;;;;;11.63;10.23;;;;;;;17.16;67.60;100374.84;154766;1093;103125;-82
2021/06/16 02:28:33;;;;;;;15.10;11.20;;;;;;;17.19;67.57;100388.78;154705;1098;103112;-82
2021/06/16 02:31:36;;;;;;;15.00;11.40;;;;;;;17.15;68.23;100395.59;154694;1093;103372;-82
2021/06/16 02:34:40;;;;;;;15.30;12.50;;;;;;;17.07;68.28;100398.39;154793;1098;103192;-81
2021/06/16 02:37:48;;;;;;;13.90;9.90;;;;;;;17.06;70.82;100391.34;154685;1098;103112;-83
2021/06/16 02:40:52;;;;;;;10.95;9.70;;;;;;;17.03;68.65;100400.66;154221;1094;103125;-83
2021/06/16 02:43:56;;;;;;;12.30;10.20;;;;;;;17.06;68.50;100402.95;154747;1098;103125;-82
2021/06/16 02:47:00;;;;;;;11.70;9.43;;;;;;;17.06;68.19;100408.34;154717;1093;103272;-83
2021/06/16 02:50:06;;;;;;;12.33;9.13;;;;;;;17.01;68.63;100401.86;154760;1093;103146;-82
2021/06/16 02:53:18;;;;;;;12.00;9.15;;;;;;;16.96;67.86;100413.23;154705;1093;103192;-78
2021/06/16 02:56:22;;;;;;;11.80;8.83;;;;;;;16.85;68.07;100411.86;154551;1093;103128;-75
2021/06/16 02:59:29;;;;;;;12.60;8.47;;;;;;;16.74;67.82;100424.96;154587;1098;103576;-76
2021/06/16 03:02:34;;;;;;;11.07;8.00;;;;;;;16.77;68.46;100419.20;154591;1098;103634;-75
2021/06/16 03:05:37;;;;;;;12.07;8.03;;;;;;;16.79;68.90;100423.37;154644;1098;103126;-76
2021/06/16 03:08:44;;;;;;;10.07;7.87;;;;;;;16.77;67.85;100428.11;154625;1094;103127;-75
2021/06/16 03:11:47;;;;;;;11.90;8.83;;;;;;;16.81;67.72;100425.88;154598;1093;103091;-76
2021/06/16 03:14:52;;;;;;;9.97;8.03;;;;;;;16.82;68.28;100428.42;154611;1098;103192;-75
2021/06/16 03:17:57;;;;;;;9.13;7.90;;;;;;;16.84;67.60;100431.77;154601;1098;103352;-75
2021/06/16 03:21:01;;;;;;;11.87;7.27;;;;;;;16.91;67.59;100429.13;154636;1098;103125;-74
2021/06/16 03:24:05;;;;;;;8.70;6.43;;;;;;;17.02;67.45;100431.33;154566;1093;103100;-75
2021/06/16 03:27:10;;;;;;;6.87;5.97;;;;;;;17.06;66.90;100439.88;154624;1098;103125;-76
2021/06/16 03:30:16;;;;;;;8.40;6.03;;;;;;;17.23;66.69;100435.08;154597;1098;103108;-77
2021/06/16 03:33:20;;;;;;;7.17;6.03;;;;;;;17.40;66.28;100438.36;154587;1093;103110;-76
2021/06/16 03:36:25;;;;;;;8.90;6.15;;;;;;;17.26;65.91;100454.41;154617;1098;103578;-76
2021/06/16 03:39:29;;;;;;;8.43;6.03;;;;;;;17.15;66.28;100459.44;154688;1098;103189;-76
2021/06/16 03:42:34;;;;;;;7.33;6.40;;;;;;;17.21;66.10;100464.92;154302;1098;103133;-75
2021/06/16 03:45:37;;;;;;;7.40;5.40;;;;;;;17.29;66.03;100461.27;154299;1093;103192;-76
2021/06/16 03:48:44;;;;;;;6.80;4.97;;;;;;;17.32;65.81;100471.69;154257;1098;103266;-75
2021/06/16 03:51:48;;;;;;;6.40;5.03;;;;;;;17.44;65.81;100475.53;154330;1093;103144;-75
2021/06/16 03:54:53;;;;;;;8.17;5.10;;;;;;;17.54;65.43;100471.68;154448;1098;103125;-76
2021/06/16 03:57:57;;;;;;;6.13;4.70;;;;;;;17.60;64.92;100485.22;154365;1098;104146;-75
2021/06/16 04:01:00;;;;;;;6.93;4.70;;;;;;;17.55;65.10;100473.33;154204;1098;103580;-76
2021/06/16 04:04:05;;;;;;;7.10;4.90;;;;;;;17.61;64.64;100473.41;154265;1101;103264;-76
2021/06/16 04:07:09;;;;;;;6.67;4.30;;;;;;;17.52;64.54;100479.95;154378;1093;103477;-76
2021/06/16 04:10:13;;;;;;;5.23;4.10;;;;;;;17.44;64.46;100480.92;153957;1093;103100;-76
2021/06/16 04:13:18;;;;;;;5.77;4.03;;;;;;;17.37;63.95;100480.02;153937;1101;103247;-76
2021/06/16 04:16:21;;;;;;;6.67;4.17;;;;;;;17.27;64.34;100477.64;154016;1101;103126;-76
2021/06/16 04:19:24;;;;;;;6.70;3.70;;;;;;;17.18;64.03;100492.26;153970;1101;103307;-75
2021/06/16 04:22:27;;;;;;;5.47;3.57;;;;;;;17.14;64.13;100495.54;154011;1101;103190;-76
2021/06/16 04:25:31;;;;;;;4.85;3.30;;;;;;;17.20;64.26;100482.12;154170;1094;103139;-75
2021/06/16 04:28:34;;;;;;;6.00;3.17;;;;;;;17.44;63.67;100489.02;154227;1098;103200;-76
2021/06/16 04:31:37;;;;;;;5.00;3.30;;;;;;;17.59;63.79;100483.56;154069;1093;103230;-77
2021/06/16 04:34:40;;;;;;;7.70;3.48;;;;;;;17.88;63.34;100470.97;153966;1101;103192;-78
2021/06/16 04:37:43;;;;;;;6.17;3.43;;;;;;;18.12;62.71;100479.65;154335;1093;103592;-76
2021/06/16 04:40:47;;;;;;;3.87;2.60;;;;;;;18.14;62.82;100478.41;154256;1094;103309;-77
2021/06/16 04:43:50;;;;;;;6.10;2.77;;;;;;;18.19;62.27;100477.84;154255;1098;103126;-76
2021/06/16 04:46:53;;;;;;;5.15;2.93;;;;;;;18.22;62.52;100475.55;154264;1098;103197;-76
2021/06/16 04:49:57;;;;;;;4.20;2.50;;;;;;;18.28;61.92;100476.63;154275;1098;103178;-76
2021/06/16 04:53:00;;;;;;;3.67;2.37;;;;;;;18.18;61.72;100478.86;154300;1098;103192;-76
2021/06/16 04:56:03;;;;;;;2.97;2.50;;;;;;;18.23;61.92;100479.94;154229;1098;103521;-76
2021/06/16 04:59:07;;;;;;;4.17;2.30;;;;;;;18.30;61.67;100463.75;153931;1101;103197;-76
2021/06/16 05:02:10;;;;;;;5.80;2.90;;;;;;;18.32;61.15;100477.06;153953;1101;103227;-76
2021/06/16 05:05:13;;;;;;;4.37;2.70;;;;;;;18.08;61.05;100491.88;154054;1093;103275;-76
2021/06/16 05:08:16;;;;;;;4.13;2.70;;;;;;;17.92;61.46;100488.44;153986;1094;103214;-76
2021/06/16 05:11:19;;;;;;;4.33;2.50;;;;;;;17.90;61.67;100495.91;153927;1101;103120;-76
2021/06/16 05:14:23;;;;;;;3.68;2.35;;;;;;;17.95;60.95;100493.43;153915;1101;103101;-76
2021/06/16 05:17:27;;;;;;;4.80;2.67;;;;;;;18.08;60.80;100497.28;153981;1101;103126;-77
2021/06/16 05:20:30;;;;;;;5.83;2.68;;;;;;;18.04;61.31;100492.26;153975;1101;103266;-76
2021/06/16 05:23:33;;;;;;;3.10;2.47;;;;;;;18.03;60.34;100490.61;153973;1101;103116;-77
2021/06/16 05:26:37;;;;;;;3.95;2.38;;;;;;;18.16;61.14;100472.82;153987;1093;103122;-77
2021/06/16 05:29:40;;;;;;;4.07;2.40;;;;;;;18.56;60.93;100481.17;153977;1101;103116;-76
2021/06/16 05:32:43;;;;;;;4.80;2.23;;;;;;;18.81;60.64;100481.52;154002;1101;103136;-76
2021/06/16 05:35:47;;;;;;;4.23;2.10;;;;;;;18.97;60.49;100483.85;153940;1093;103199;-74
2021/06/16 05:38:50;;;;;;;6.13;2.60;;;;;;;18.97;60.11;100477.63;154000;1093;103127;-74
2021/06/16 05:41:53;;;;;;;5.45;2.85;;;;;;;19.04;60.27;100481.19;153959;1101;103129;-74
2021/06/16 05:44:56;;;;;;;4.85;3.00;;;;;;;19.04;59.90;100483.89;153946;1093;103188;-74
2021/06/16 05:47:59;;;;;;;4.20;2.53;;;;;;;18.97;59.99;100483.85;154331;1093;103107;-75
2021/06/16 05:51:02;;;;;;;5.73;2.60;;;;;;;18.87;59.83;100490.70;154096;1101;103551;-80
2021/06/16 05:54:09;;;;;;;3.90;2.27;;;;;;;18.75;59.95;100491.23;154084;1101;103158;-82
2021/06/16 05:57:12;;;;;;;3.57;2.67;;;;;;;18.71;59.79;100500.78;154073;1093;103126;-81
2021/06/16 06:00:17;;;;;;;4.63;2.53;;;;;;;18.60;59.82;100490.54;154194;1098;103653;-82
2021/06/16 06:03:20;;;;;;;5.43;3.33;;;;;;;18.56;59.71;100494.68;154748;1093;103141;-81
2021/06/16 06:06:23;;;;;;;4.53;2.85;;;;;;;18.62;59.86;100497.40;154664;1098;103197;-81
2021/06/16 06:09:26;;;;;;;3.77;2.97;;;;;;;18.61;59.60;100494.89;154674;1098;103626;-82
2021/06/16 06:12:29;;;;;;;4.53;2.97;;;;;;;18.61;59.95;100503.86;154850;1098;103197;-81
2021/06/16 06:15:32;;;;;;;6.37;3.40;;;;;;;18.62;59.71;100505.52;154695;1093;103123;-81
2021/06/16 06:18:35;;;;;;;5.17;3.00;;;;;;;18.69;59.78;100502.86;154695;1093;103131;-81
2021/06/16 06:21:38;;;;;;;3.85;2.68;;;;;;;18.87;59.68;100504.22;154653;1098;103273;-81
2021/06/16 06:24:41;;;;;;;3.57;2.80;;;;;;;18.85;58.72;100509.81;154690;1099;103464;-81
2021/06/16 06:27:44;;;;;;;4.10;2.60;;;;;;;18.88;58.55;100513.98;154918;1098;103191;-82
2021/06/16 06:30:47;;;;;;;4.50;2.50;;;;;;;19.03;59.41;100517.37;154663;1098;103187;-81
2021/06/16 06:33:50;;;;;;;4.33;2.33;;;;;;;19.25;59.45;100515.38;154677;1098;103128;-82
2021/06/16 06:36:54;;;;;;;4.80;2.68;;;;;;;19.50;58.82;100512.94;154732;1093;103292;-80
2021/06/16 06:39:57;;;;;;;5.27;2.70;;;;;;;19.63;58.86;100506.72;154689;1093;103662;-81
2021/06/16 06:43:00;;;;;;;4.63;2.60;;;;;;;19.66;58.86;100500.05;154664;1093;103133;-81
2021/06/16 06:46:03;;;;;;;3.83;2.70;;;;;;;19.86;58.79;100508.20;154642;1098;103122;-82
2021/06/16 06:49:06;;;;;;;5.80;2.60;;;;;;;20.14;58.57;100491.73;154696;1098;103331;-82
2021/06/16 06:52:09;;;;;;;4.00;2.60;;;;;;;20.36;58.05;100495.88;154702;1098;103198;-81
2021/06/16 06:55:13;;;;;;;5.03;2.67;;;;;;;20.74;57.98;100494.33;154764;1093;103115;-81
2021/06/16 06:58:16;;;;;;;8.33;3.20;;;;;;;21.01;54.24;100491.52;154699;1098;103213;-82
2021/06/16 07:01:19;;;;;;;3.30;2.60;;;;;;;21.14;57.42;100497.70;154651;1093;103192;-81
2021/06/16 07:04:23;;;;;;;4.67;2.90;;;;;;;21.26;56.42;100494.30;154689;1093;103140;-82
2021/06/16 07:07:26;;;;;;;4.53;2.70;;;;;;;21.23;56.13;100505.58;154224;1098;103190;-81
2021/06/16 07:10:29;;;;;;;6.30;2.67;;;;;;;21.31;56.97;100510.78;154769;1098;103147;-82
2021/06/16 07:13:32;;;;;;;3.00;2.30;;;;;;;21.55;56.82;100510.00;154685;1098;103134;-81
2021/06/16 07:16:35;;;;;;;4.43;2.90;;;;;;;21.67;56.35;100507.44;154682;1093;103215;-82
2021/06/16 07:19:38;;;;;;;3.33;2.50;;;;;;;21.75;55.93;100509.05;154707;1093;103224;-82
2021/06/16 07:22:41;;;;;;;5.13;2.50;;;;;;;21.93;56.19;100503.66;154667;1094;103187;-82
2021/06/16 07:25:44;;;;;;;4.17;2.67;;;;;;;21.93;55.74;100500.95;154726;1098;104617;-82
2021/06/16 07:28:47;;;;;;;5.03;2.80;;;;;;;21.94;55.90;100497.19;154694;1098;103717;-82
2021/06/16 07:31:51;;;;;;;4.10;2.83;;;;;;;21.96;55.72;100494.26;154666;1098;103224;-82
2021/06/16 07:34:54;;;;;;;6.83;2.80;;;;;;;21.88;55.33;100503.52;154674;1094;103183;-82
2021/06/16 07:37:57;;;;;;;5.03;3.60;;;;;;;21.78;55.92;100499.63;154660;1098;103255;-82
2021/06/16 07:41:00;;;;;;;4.58;2.53;;;;;;;21.87;55.73;100499.13;154702;1098;103116;-82
2021/06/16 07:44:04;;;;;;;3.23;2.50;;;;;;;21.94;55.44;100507.20;154728;1098;103107;-82
2021/06/16 07:47:07;;;;;;;6.27;2.90;;;;;;;21.92;54.75;100499.30;154676;1098;103069;-83
2021/06/16 07:50:13;;;;;;;4.80;3.00;;;;;;;21.84;54.76;100509.59;154732;1093;103120;-82
2021/06/16 07:53:16;;;;;;;3.50;2.90;;;;;;;21.82;54.96;100506.27;154649;1098;103266;-82
2021/06/16 07:56:19;;;;;;;3.80;2.90;;;;;;;21.91;54.54;100504.95;154749;1093;103126;-81
2021/06/16 07:59:22;;;;;;;4.47;2.90;;;;;;;21.90;54.30;100508.70;154702;1093;103141;-82
2021/06/16 08:02:27;;;;;;;4.33;2.70;;;;;;;21.91;54.34;100511.20;154696;1098;103122;-82
2021/06/16 08:05:30;;;;;;;5.43;3.13;;;;;;;21.81;54.11;100515.48;154684;1098;103144;-82
2021/06/16 08:08:33;;;;;;;4.95;2.95;;;;;;;21.86;54.68;100510.20;154665;1098;103264;-82
2021/06/16 08:11:36;;;;;;;2.97;2.47;;;;;;;21.93;54.26;100516.42;154740;1093;103214;-82
2021/06/16 08:14:40;;;;;;;3.67;2.67;;;;;;;21.88;54.19;100514.38;154721;1093;103139;-81
2021/06/16 08:17:43;;;;;;;5.67;3.20;;;;;;;21.87;53.74;100518.14;154667;1093;103122;-82
2021/06/16 08:20:46;;;;;;;4.73;2.50;;;;;;;21.76;54.13;100516.13;154687;1098;103219;-82
2021/06/16 08:23:49;;;;;;;4.20;2.70;;;;;;;21.80;54.36;100528.22;154675;1093;103196;-82
2021/06/16 08:26:52;;;;;;;3.80;2.85;;;;;;;21.96;54.37;100524.97;154687;1098;103160;-82
2021/06/16 08:29:55;;;;;;;4.88;2.50;;;;;;;22.05;54.10;100527.40;154723;1098;103195;-82
2021/06/16 08:32:59;;;;;;;5.53;3.63;;;;;;;22.12;53.38;100534.44;154685;1098;103464;-82
2021/06/16 08:36:02;;;;;;;4.95;3.40;;;;;;;22.21;52.42;100534.15;154700;1093;103139;-82
2021/06/16 08:39:05;;;;;;;5.33;3.50;;;;;;;22.22;52.88;100530.39;154728;1098;103286;-82
2021/06/16 08:42:11;;;;;;;5.10;3.83;;;;;;;22.30;53.39;100533.67;154727;1093;103125;-82
2021/06/16 08:45:15;;;;;;;7.37;4.40;;;;;;;22.51;53.26;100526.98;154732;1094;103208;-83
2021/06/16 08:48:18;;;;;;;4.35;3.20;;;;;;;22.65;53.61;100535.85;154708;1094;103192;-82
2021/06/16 08:51:21;;;;;;;4.60;2.90;;;;;;;22.73;53.48;100535.55;154725;1098;103121;-82
2021/06/16 08:54:24;;;;;;;4.57;2.83;;;;;;;22.59;52.99;100535.91;154703;1093;103272;-82
2021/06/16 08:57:27;;;;;;;5.83;3.43;;;;;;;22.48;51.66;100538.33;154768;1093;103122;-83
2021/06/16 09:00:30;;;;;;;6.25;3.40;;;;;;;22.39;53.07;100536.13;154677;1098;103133;-82
2021/06/16 09:03:34;;;;;;;4.27;2.90;;;;;;;22.44;53.40;100523.52;154670;1094;103200;-83
2021/06/16 09:06:37;;;;;;;12.43;8.70;;;;;;;22.50;52.78;100528.05;154703;1093;103187;-82
2021/06/16 09:09:40;;;;;;;8.80;5.20;;;;;;;22.56;53.01;100526.32;154272;1099;103178;-82
2021/06/16 09:12:49;;;;;;;5.53;3.58;;;;;;;22.68;51.89;100532.66;154695;1098;103127;-82
2021/06/16 09:15:53;;;;;;;4.50;3.30;;;;;;;22.70;52.64;100521.56;154700;1099;103077;-82
2021/06/16 09:18:58;;;;;;;6.53;3.73;;;;;;;22.78;52.71;100523.14;154709;1098;103129;-83
2021/06/16 09:22:03;;;;;;;4.40;3.30;;;;;;;22.80;52.53;100526.47;154705;1093;103215;-83
2021/06/16 09:25:09;;;;;;;9.73;4.60;;;;;;;22.84;52.98;100524.95;154689;1098;103208;-83
2021/06/16 09:28:12;;;;;;;6.53;4.00;;;;;;;22.79;52.30;100525.64;154284;1098;103276;-82
2021/06/16 09:31:17;;;;;;;5.07;3.40;;;;;;;22.83;52.52;100526.03;154660;1098;103194;-82
2021/06/16 09:34:20;;;;;;;5.90;3.60;;;;;;;22.90;52.66;100533.05;154698;1098;103100;-83
2021/06/16 09:37:23;;;;;;;5.17;3.33;;;;;;;22.97;51.73;100532.95;154663;1094;103141;-83
2021/06/16 09:40:28;;;;;;;4.30;3.38;;;;;;;22.84;51.70;100523.05;154665;1098;103257;-83
2021/06/16 09:43:31;;;;;;;5.43;3.40;;;;;;;22.91;51.77;100528.43;154738;1098;103134;-82
2021/06/16 09:46:34;;;;;;;5.90;4.27;;;;;;;22.98;51.68;100534.63;154683;1094;103193;-82
2021/06/16 09:49:53;;;;;;;4.38;3.75;;;;;;;23.00;52.09;100527.06;154681;1093;103112;-82
2021/06/16 09:52:57;;;;;;;6.77;4.40;;;;;;;23.10;51.85;100532.82;154711;1098;103144;-82
2021/06/16 09:56:15;;;;;;;5.83;3.90;;;;;;;23.21;51.64;100533.09;154693;1093;103190;-83
2021/06/16 09:59:35;;;;;;;7.10;3.87;;;;;;;23.23;51.96;100525.53;154731;1094;103159;-83
2021/06/16 10:02:41;;;;;;;5.77;3.67;;;;;;;23.29;51.78;100540.97;154665;1098;103173;-83
2021/06/16 10:06:03;;;;;;;4.70;3.43;;;;;;;23.26;51.84;100531.34;154736;1098;103123;-83
2021/06/16 10:09:08;;;;;;;5.10;4.00;;;;;;;23.24;50.74;100527.20;154746;1093;103145;-82
2021/06/16 10:12:12;;;;;;;4.93;3.20;;;;;;;23.25;51.46;100526.13;154724;1098;103211;-83
2021/06/16 10:15:18;;;;;;;6.13;3.43;;;;;;;23.40;51.87;100525.72;154680;1094;103189;-83
2021/06/16 10:18:23;;;;;;;8.27;4.17;;;;;;;23.45;50.78;100529.41;154714;1098;104721;-83
2021/06/16 10:21:26;;;;;;;5.43;3.60;;;;;;;23.45;51.25;100529.41;154726;1093;103118;-82
2021/06/16 10:24:29;;;;;;;7.40;4.37;;;;;;;23.56;51.52;100527.80;154729;1093;103125;-82
2021/06/16 10:27:36;;;;;;;5.87;4.43;;;;;;;23.59;49.68;100530.04;154709;1093;103296;-83
2021/06/16 10:30:42;;;;;;;7.07;4.50;;;;;;;23.58;51.09;100527.58;154762;1098;103112;-83
2021/06/16 10:33:56;;;;;;;7.63;5.07;;;;;;;23.64;50.87;100538.36;154663;1098;103154;-82
2021/06/16 10:37:05;;;;;;;6.45;4.80;;;;;;;23.68;50.95;100539.55;154656;1098;103127;-82
2021/06/16 10:40:31;;;;;;;6.30;4.80;;;;;;;23.70;50.38;100534.70;154738;1093;103116;-83
2021/06/16 10:43:35;;;;;;;8.17;5.00;;;;;;;23.77;50.72;100523.70;154680;1093;103282;-82
2021/06/16 10:46:51;;;;;;;7.53;4.57;;;;;;;23.84;50.70;100532.61;154761;1093;103147;-83
2021/06/16 10:49:55;;;;;;;6.57;5.23;;;;;;;23.82;50.42;100520.30;154692;1098;103643;-83
2021/06/16 10:53:06;;;;;;;5.60;4.57;;;;;;;23.70;49.95;100529.25;154685;1098;103192;-83
2021/06/16 10:56:09;;;;;;;4.63;4.13;;;;;;;23.74;50.30;100532.34;154731;1098;103110;-82
2021/06/16 10:59:13;;;;;;;4.57;4.13;;;;;;;23.88;50.27;100531.11;154756;1093;103304;-82
2021/06/16 11:02:17;;;;;;;6.53;4.87;;;;;;;24.04;50.48;100526.03;154653;1098;103212;-82
2021/06/16 11:05:21;;;;;;;7.27;4.70;;;;;;;24.14;50.53;100529.00;154748;1098;103189;-82
2021/06/16 11:08:51;;;;;;;6.07;3.93;;;;;;;24.21;49.92;100531.59;154697;1098;103189;-82
2021/06/16 11:12:09;;;;;;;5.67;4.03;;;;;;;24.03;49.46;100530.63;154750;1098;103225;-83
2021/06/16 11:15:31;;;;;;;5.97;4.57;;;;;;;23.88;49.80;100527.53;154730;1093;103263;-83
2021/06/16 11:18:34;;;;;;;6.17;4.33;;;;;;;23.72;49.62;100526.30;154744;1093;103496;-82
2021/06/16 11:21:37;;;;;;;5.40;4.60;;;;;;;23.74;49.58;100526.89;154691;1098;103148;-82
2021/06/16 11:25:07;;;;;;;5.97;5.10;;;;;;;23.83;49.40;100520.08;154672;1093;103125;-82
2021/06/16 11:28:18;;;;;;;4.60;4.07;;;;;;;23.93;49.14;100524.13;154758;1098;103192;-82
2021/06/16 11:31:21;;;;;;;6.13;4.83;;;;;;;23.96;49.38;100519.03;154677;1098;103186;-83
2021/06/16 11:34:48;;;;;;;6.75;4.80;;;;;;;23.97;48.84;100522.58;154737;1093;103117;-82
2021/06/16 11:38:01;;;;;;;6.03;4.90;;;;;;;24.07;49.60;100514.64;154656;1098;103570;-83
2021/06/16 11:41:10;;;;;;;6.40;4.70;;;;;;;24.13;48.69;100513.69;154710;1093;103192;-82
2021/06/16 11:44:14;;;;;;;5.45;4.65;;;;;;;24.15;47.44;100511.55;154733;1098;103223;-83
2021/06/16 11:47:20;;;;;;;6.77;5.00;;;;;;;24.13;48.42;100513.69;154727;1098;103229;-82
2021/06/16 11:50:31;;;;;;;6.50;4.80;;;;;;;24.19;47.75;100518.22;154728;1098;103109;-82
2021/06/16 11:53:37;;;;;;;6.57;4.77;;;;;;;24.17;48.19;100516.77;154719;1093;103666;-83
2021/06/16 11:56:41;;;;;;;5.50;4.53;;;;;;;24.20;48.42;100519.86;154701;1098;103107;-82
2021/06/16 11:59:46;;;;;;;6.37;4.73;;;;;;;24.18;47.88;100513.82;154735;1098;103866;-83
2021/06/16 12:02:49;;;;;;;6.27;4.20;;;;;;;24.30;48.58;100508.36;154702;1094;103248;-82
2021/06/16 12:06:01;;;;;;;6.10;5.03;;;;;;;24.41;46.34;100506.70;154723;1093;103115;-83
2021/06/16 12:09:05;;;;;;;6.27;5.17;;;;;;;24.37;47.38;100503.63;154717;1093;103137;-82
2021/06/16 12:12:10;;;;;;;7.50;4.87;;;;;;;24.42;47.58;100505.63;154747;1093;103192;-83
2021/06/16 12:15:16;;;;;;;5.13;4.50;;;;;;;24.53;47.69;100504.81;154679;1098;103160;-82
2021/06/16 12:18:19;;;;;;;6.03;4.60;;;;;;;24.59;47.52;100495.66;154715;1098;103221;-83
2021/06/16 12:21:22;;;;;;;6.15;4.55;;;;;;;24.70;45.84;100491.27;154825;1098;103184;-82
2021/06/16 12:24:28;;;;;;;6.10;3.93;;;;;;;24.72;46.97;100486.39;154706;1098;103305;-82
2021/06/16 12:27:33;;;;;;;6.13;4.50;;;;;;;24.82;46.95;100486.59;154701;1098;103234;-82
2021/06/16 12:30:37;;;;;;;4.20;3.70;;;;;;;24.92;47.55;100476.95;154733;1098;103192;-82
2021/06/16 12:33:45;;;;;;;6.13;4.00;;;;;;;24.89;46.97;100472.82;154720;1093;103096;-83
2021/06/16 12:37:09;;;;;;;6.10;3.87;;;;;;;24.95;47.21;100468.30;154747;1098;103164;-82
2021/06/16 12:40:13;;;;;;;6.03;4.10;;;;;;;24.94;45.02;100477.54;154679;1098;103244;-82
2021/06/16 12:43:25;;;;;;;6.17;3.97;;;;;;;24.75;47.04;100471.42;154255;1094;103125;-82
2021/06/16 12:46:28;;;;;;;4.60;4.00;;;;;;;24.77;46.98;100463.83;154752;1098;103186;-81
2021/06/16 12:49:33;;;;;;;4.50;3.77;;;;;;;24.95;46.94;100462.83;154679;1093;103298;-81
2021/06/16 12:52:38;;;;;;;4.80;3.90;;;;;;;25.04;47.00;100464.93;154744;1093;103122;-82
2021/06/16 12:55:46;;;;;;;4.40;4.00;;;;;;;25.16;46.77;100473.06;154707;1093;103097;-83
2021/06/16 12:58:49;;;;;;;4.35;3.60;;;;;;;25.09;45.26;100456.81;154795;1098;103215;-82
2021/06/16 13:01:58;;;;;;;4.70;3.95;;;;;;;25.07;46.01;100460.88;154738;1098;103303;-82
2021/06/16 13:05:03;;;;;;;5.87;4.27;;;;;;;24.98;45.56;100465.06;154645;1094;103272;-82
2021/06/16 13:08:06;;;;;;;4.55;3.60;;;;;;;24.96;45.87;100459.87;154665;1098;103256;-82
2021/06/16 13:11:22;;;;;;;5.37;4.00;;;;;;;24.88;45.16;100450.16;154700;1098;103192;-82
2021/06/16 13:14:27;;;;;;;5.27;3.87;;;;;;;24.85;45.77;100450.64;154753;1098;103096;-82
2021/06/16 13:17:42;;;;;;;4.27;3.67;;;;;;;24.92;45.99;100450.48;154710;1098;103211;-82
2021/06/16 13:20:47;;;;;;;6.05;3.70;;;;;;;24.97;46.05;100447.86;154716;1098;103370;-82
2021/06/16 13:23:53;;;;;;;5.97;3.93;;;;;;;24.99;45.00;100442.16;154717;1098;103189;-83
2021/06/16 13:27:04;;;;;;;4.00;3.60;;;;;;;24.98;45.93;100449.53;154735;1093;103122;-83
2021/06/16 13:30:12;;;;;;;5.13;3.90;;;;;;;25.03;45.37;100441.41;154635;1098;103101;-82
2021/06/16 13:33:25;;;;;;;4.67;3.93;;;;;;;25.02;44.97;100439.77;154730;1098;103256;-82
2021/06/16 13:36:29;;;;;;;4.10;3.30;;;;;;;25.01;45.17;100443.56;154685;1098;103260;-84
2021/06/16 13:39:32;;;;;;;3.87;3.30;;;;;;;24.93;45.89;100449.42;154695;1093;103097;-83
2021/06/16 13:42:35;;;;;;;4.73;3.70;;;;;;;24.84;45.35;100445.41;154668;1093;103117;-82
2021/06/16 13:45:38;;;;;;;4.30;3.80;;;;;;;24.81;46.16;100443.19;154690;1098;103145;-83
2021/06/16 13:48:41;;;;;;;4.43;3.40;;;;;;;24.78;45.97;100435.48;154694;1098;103183;-82
2021/06/16 13:51:44;;;;;;;5.63;3.28;;;;;;;24.83;46.04;100433.67;154746;1093;103266;-82
2021/06/16 13:54:48;;;;;;;3.75;3.40;;;;;;;24.92;45.89;100430.55;154733;1098;103130;-83
2021/06/16 13:57:51;;;;;;;3.73;3.33;;;;;;;25.03;45.88;100429.67;154667;1098;103215;-83
2021/06/16 14:00:54;;;;;;;6.10;3.80;;;;;;;25.07;45.75;100425.38;154724;1093;103544;-82